Time;durP1;ratioP1;P1;durP2;ratioP2;P2;SDS_P1;SDS_P2;PMS_P1;PMS_P2;Temp;Humidity;BMP_temperature;BMP_pressure;BME280_temperature;BME280_humidity;BME280_pressure;Samples;Min_cycle;Max_cycle;Signal;HPM_P1;HPM_P2
2021/03/16 00:00:25;;;;;;;28.15;8.18;;;;;;;5.14;75.17;100137.13;5005673;28;20046;-70
2021/03/16 00:02:50;;;;;;;23.52;8.57;;;;;;;5.12;75.27;100140.66;5007391;28;20112;-70
2021/03/16 00:05:16;;;;;;;21.73;7.97;;;;;;;5.13;75.53;100137.16;5006811;28;20132;-70
2021/03/16 00:07:41;;;;;;;23.15;8.13;;;;;;;5.12;75.08;100145.91;5007289;28;20029;-70
2021/03/16 00:10:07;;;;;;;29.83;8.07;;;;;;;5.13;75.17;100139.75;5004848;28;20034;-69
2021/03/16 00:12:32;;;;;;;29.95;8.10;;;;;;;5.12;75.14;100136.28;5004614;28;20672;-69
2021/03/16 00:14:58;;;;;;;28.45;7.97;;;;;;;5.11;74.98;100134.56;5006019;28;20038;-71
2021/03/16 00:17:23;;;;;;;32.83;9.88;;;;;;;5.15;75.38;100143.22;4987182;28;20570;-70
2021/03/16 00:19:49;;;;;;;24.00;7.45;;;;;;;5.14;75.46;100133.63;4995343;28;20113;-71
2021/03/16 00:22:15;;;;;;;31.23;9.70;;;;;;;5.15;75.53;100135.38;4999110;28;20041;-70
2021/03/16 00:24:40;;;;;;;24.27;9.02;;;;;;;5.19;75.12;100138.75;5008716;28;20036;-70
2021/03/16 00:27:07;;;;;;;33.72;8.80;;;;;;;5.21;74.79;100136.97;5005108;28;20412;-70
2021/03/16 00:29:33;;;;;;;31.92;8.38;;;;;;;5.20;74.92;100141.34;5011189;28;20568;-71
2021/03/16 00:31:58;;;;;;;23.58;6.80;;;;;;;5.21;75.31;100139.59;5008272;28;20112;-70
2021/03/16 00:34:24;;;;;;;32.03;8.75;;;;;;;5.24;75.20;100147.34;5010884;28;20034;-70
2021/03/16 00:36:49;;;;;;;26.55;7.97;;;;;;;5.29;74.70;100143.78;4978515;28;20046;-69
2021/03/16 00:39:15;;;;;;;23.92;9.32;;;;;;;5.23;74.71;100150.88;5004940;28;20045;-68
2021/03/16 00:41:40;;;;;;;37.83;10.40;;;;;;;5.18;75.18;100142.28;4996278;28;20089;-68
2021/03/16 00:44:07;;;;;;;20.17;7.07;;;;;;;5.21;75.53;100150.91;5008466;28;20041;-69
2021/03/16 00:46:33;;;;;;;28.85;8.05;;;;;;;5.25;75.57;100143.88;5007880;28;20045;-69
2021/03/16 00:48:58;;;;;;;29.08;8.95;;;;;;;5.26;75.16;100145.59;5009427;28;20045;-69
2021/03/16 00:51:24;;;;;;;20.13;7.05;;;;;;;5.23;75.05;100149.13;5005059;28;20038;-69
2021/03/16 00:53:49;;;;;;;24.27;8.05;;;;;;;5.25;75.18;100152.56;5003931;28;20042;-68
2021/03/16 00:56:14;;;;;;;32.95;9.60;;;;;;;5.27;75.28;100158.63;5012555;28;20034;-69
2021/03/16 00:58:40;;;;;;;26.42;7.72;;;;;;;5.25;75.50;100165.63;5004294;28;20052;-69
2021/03/16 01:01:06;;;;;;;26.80;8.57;;;;;;;5.23;75.14;100169.19;5009562;28;20460;-69
2021/03/16 01:03:32;;;;;;;26.45;9.38;;;;;;;5.22;74.96;100175.28;5009725;28;20099;-69
2021/03/16 01:05:58;;;;;;;37.35;8.88;;;;;;;5.19;75.92;100168.38;5013612;28;20038;-69
2021/03/16 01:08:23;;;;;;;21.42;7.85;;;;;;;5.22;75.68;100170.94;5012087;28;20594;-68
2021/03/16 01:10:51;;;;;;;35.72;8.68;;;;;;;5.22;75.17;100181.41;5025359;28;20037;-69
2021/03/16 01:13:17;;;;;;;23.77;8.65;;;;;;;5.14;75.29;100175.44;5011979;28;20087;-69
2021/03/16 01:15:43;;;;;;;21.25;8.20;;;;;;;5.14;75.80;100183.28;5011705;28;20033;-68
2021/03/16 01:18:08;;;;;;;29.83;8.95;;;;;;;5.19;75.32;100181.44;5013175;28;20048;-68
2021/03/16 01:20:35;;;;;;;25.20;8.52;;;;;;;5.22;75.16;100183.13;5013040;28;20412;-67
2021/03/16 01:23:00;;;;;;;33.47;9.48;;;;;;;5.19;75.42;100177.97;5013634;28;20522;-67
2021/03/16 01:25:25;;;;;;;23.38;9.38;;;;;;;5.19;75.48;100184.03;5013259;28;20037;-67
2021/03/16 01:27:51;;;;;;;29.02;10.30;;;;;;;5.21;75.25;100189.25;5012086;28;20030;-68
2021/03/16 01:30:18;;;;;;;31.33;9.15;;;;;;;5.25;75.58;100188.31;5013166;28;20397;-67
2021/03/16 01:32:45;;;;;;;25.15;9.48;;;;;;;5.27;75.21;100184.78;5025437;28;20511;-67
2021/03/16 01:35:12;;;;;;;31.50;10.85;;;;;;;5.26;75.32;100190.88;5031092;28;20438;-67
2021/03/16 01:37:39;;;;;;;29.23;8.40;;;;;;;5.25;74.99;100191.78;5032608;28;20120;-67
2021/03/16 01:40:11;;;;;;;32.17;10.48;;;;;;;5.25;75.18;100189.16;5033024;28;20040;-67
2021/03/16 01:42:37;;;;;;;21.48;9.15;;;;;;;5.26;75.24;100190.88;5033944;28;20042;-67
2021/03/16 01:45:16;;;;;;;31.10;9.35;;;;;;;5.28;75.08;100193.47;5032937;28;20478;-67
2021/03/16 01:47:49;;;;;;;27.83;9.52;;;;;;;5.29;74.71;100189.94;5032827;28;20056;-67
2021/03/16 01:50:18;;;;;;;23.75;8.15;;;;;;;5.25;74.59;100189.16;5031254;28;20030;-67
2021/03/16 01:52:44;;;;;;;19.50;7.03;;;;;;;5.24;75.15;100191.78;5027486;28;20160;-68
2021/03/16 01:55:11;;;;;;;19.38;8.05;;;;;;;5.26;74.63;100182.19;5032706;28;20121;-68
2021/03/16 01:57:39;;;;;;;25.05;8.45;;;;;;;5.27;74.95;100181.31;5031722;28;20084;-68
2021/03/16 02:00:05;;;;;;;31.52;7.85;;;;;;;5.26;74.17;100184.78;5032443;28;20037;-68
2021/03/16 02:02:30;;;;;;;25.65;8.90;;;;;;;5.20;74.86;100179.72;5018680;28;20136;-68
2021/03/16 02:04:56;;;;;;;27.35;7.22;;;;;;;5.17;74.56;100185.84;5022048;28;20165;-68
2021/03/16 02:07:31;;;;;;;28.45;8.55;;;;;;;5.14;74.45;100178.94;5011029;28;20073;-68
2021/03/16 02:10:08;;;;;;;27.43;7.97;;;;;;;5.14;74.78;100184.16;5011906;28;20037;-69
2021/03/16 02:12:38;;;;;;;28.38;7.90;;;;;;;5.17;74.73;100185.84;5012256;28;20303;-68
2021/03/16 02:15:27;;;;;;;32.58;9.32;;;;;;;5.17;74.94;100191.09;5026955;28;20054;-68
2021/03/16 02:17:55;;;;;;;25.92;7.18;;;;;;;5.16;74.82;100189.34;5012271;28;20058;-69
2021/03/16 02:20:35;;;;;;;26.35;8.63;;;;;;;5.15;74.76;100188.50;5011938;28;20049;-68
2021/03/16 02:23:03;;;;;;;18.02;7.85;;;;;;;5.19;75.29;100188.41;5027800;28;20037;-69
2021/03/16 02:25:53;;;;;;;25.98;7.45;;;;;;;5.22;74.94;100184.00;5011197;28;20034;-69
2021/03/16 02:28:32;;;;;;;24.83;8.93;;;;;;;5.20;75.16;100204.09;5012056;28;20030;-69
2021/03/16 02:31:02;;;;;;;23.33;8.38;;;;;;;5.14;74.71;100199.84;5011511;28;20612;-68
2021/03/16 02:33:33;;;;;;;20.33;8.23;;;;;;;5.13;74.12;100195.50;5026885;28;20056;-68
2021/03/16 02:35:59;;;;;;;18.42;7.78;;;;;;;5.15;74.17;100195.47;5011888;28;20179;-69
2021/03/16 02:38:35;;;;;;;28.67;8.60;;;;;;;5.18;74.50;100190.19;5011661;28;20037;-69
2021/03/16 02:41:01;;;;;;;32.78;9.27;;;;;;;5.20;74.95;100200.63;5013270;28;20036;-69
2021/03/16 02:43:29;;;;;;;26.65;9.27;;;;;;;5.20;74.46;100198.00;5011865;28;20030;-68
2021/03/16 02:45:55;;;;;;;23.40;7.85;;;;;;;5.20;75.02;100206.69;5011389;28;20061;-68
2021/03/16 02:48:21;;;;;;;31.42;8.50;;;;;;;5.21;74.85;100207.56;5011766;28;20164;-69
2021/03/16 02:50:47;;;;;;;25.65;9.00;;;;;;;5.09;75.20;100203.44;5007192;28;20038;-70
2021/03/16 02:53:15;;;;;;;27.48;8.93;;;;;;;5.01;75.45;100200.13;5011321;28;20030;-70
2021/03/16 02:55:41;;;;;;;19.20;9.10;;;;;;;5.07;75.38;100203.47;5012113;28;20137;-69
2021/03/16 02:58:07;;;;;;;25.85;8.98;;;;;;;5.09;74.92;100211.25;5010766;28;20040;-69
2021/03/16 03:00:33;;;;;;;30.90;9.02;;;;;;;5.06;75.03;100212.19;5010950;28;20117;-69
2021/03/16 03:03:00;;;;;;;27.70;9.00;;;;;;;5.07;74.47;100210.44;5011158;28;20034;-69
2021/03/16 03:05:27;;;;;;;31.80;9.13;;;;;;;5.04;74.93;100218.34;5022591;28;20037;-69
2021/03/16 03:07:54;;;;;;;19.50;8.80;;;;;;;5.04;75.02;100215.72;5029662;28;20037;-69
2021/03/16 03:10:20;;;;;;;24.30;8.98;;;;;;;5.09;75.18;100221.72;5031382;28;20142;-69
2021/03/16 03:12:45;;;;;;;17.55;8.93;;;;;;;5.08;75.38;100214.78;5031876;28;20576;-69
2021/03/16 03:15:11;;;;;;;25.40;8.45;;;;;;;5.12;75.33;100225.16;5031198;28;20084;-68
2021/03/16 03:17:36;;;;;;;31.20;8.70;;;;;;;5.14;74.73;100218.16;5031099;28;20497;-69
2021/03/16 03:20:08;;;;;;;22.35;8.63;;;;;;;5.07;74.79;100218.28;5030740;28;20031;-68
2021/03/16 03:22:38;;;;;;;20.67;8.52;;;;;;;5.04;74.90;100220.94;5030830;28;20052;-68
2021/03/16 03:25:08;;;;;;;27.42;9.75;;;;;;;5.00;75.31;100221.94;5029315;28;20117;-69
2021/03/16 03:27:39;;;;;;;25.20;9.15;;;;;;;4.97;75.69;100222.81;4998909;28;20034;-68
2021/03/16 03:30:06;;;;;;;23.45;7.90;;;;;;;4.94;75.38;100222.88;4991191;28;20031;-68
2021/03/16 03:32:34;;;;;;;21.98;7.30;;;;;;;4.95;75.72;100224.63;4991248;28;20526;-68
2021/03/16 03:35:01;;;;;;;28.05;7.78;;;;;;;4.92;75.17;100225.53;4989287;28;20034;-68
2021/03/16 03:37:28;;;;;;;27.80;7.82;;;;;;;4.94;75.44;100236.78;4990977;28;20034;-68
2021/03/16 03:39:54;;;;;;;20.65;8.20;;;;;;;4.90;75.69;100234.31;4990432;28;20125;-70
2021/03/16 03:42:20;;;;;;;32.30;8.35;;;;;;;4.87;75.81;100237.84;4991393;28;20088;-67
2021/03/16 03:44:48;;;;;;;26.05;9.25;;;;;;;4.89;75.43;100246.47;4990775;28;20037;-68
2021/03/16 03:47:16;;;;;;;24.13;6.97;;;;;;;4.94;75.37;100242.03;5020809;28;20042;-68
2021/03/16 03:49:42;;;;;;;21.63;6.70;;;;;;;4.95;75.21;100241.16;5029762;28;20033;-67
2021/03/16 03:52:12;;;;;;;20.92;6.97;;;;;;;4.97;75.67;100240.25;5030072;28;20064;-69
2021/03/16 03:54:45;;;;;;;21.50;7.25;;;;;;;4.96;75.60;100242.00;5030024;28;20065;-69
2021/03/16 03:57:13;;;;;;;28.00;6.95;;;;;;;4.95;75.03;100243.75;5030126;28;20055;-68
2021/03/16 03:59:43;;;;;;;15.93;7.13;;;;;;;4.94;75.67;100251.63;5029857;28;20121;-69
2021/03/16 04:02:10;;;;;;;26.88;7.03;;;;;;;4.95;75.71;100249.00;5030181;28;20127;-69
2021/03/16 04:04:38;;;;;;;22.38;7.70;;;;;;;4.96;75.43;100260.28;5022817;28;20038;-69
2021/03/16 04:07:04;;;;;;;22.83;7.50;;;;;;;5.01;75.13;100253.22;5010322;28;20084;-69
2021/03/16 04:09:31;;;;;;;26.17;6.82;;;;;;;4.97;75.42;100256.78;5008987;28;20030;-69
2021/03/16 04:11:57;;;;;;;23.27;8.80;;;;;;;4.99;75.38;100257.63;5010265;28;20163;-69
2021/03/16 04:14:23;;;;;;;25.63;10.15;;;;;;;4.97;75.55;100256.78;5009764;28;20034;-70
2021/03/16 04:16:50;;;;;;;26.20;9.02;;;;;;;4.94;76.14;100257.69;5001626;28;20033;-69
2021/03/16 04:19:15;;;;;;;27.85;11.27;;;;;;;4.94;76.26;100252.47;5009403;28;20041;-69
2021/03/16 04:21:42;;;;;;;29.83;9.60;;;;;;;4.91;75.86;100257.75;5010293;28;20038;-69
2021/03/16 04:24:08;;;;;;;26.23;8.05;;;;;;;4.91;76.02;100254.28;5041715;28;20033;-69
2021/03/16 04:26:34;;;;;;;17.95;7.22;;;;;;;4.84;76.30;100261.38;5010344;28;20044;-70
2021/03/16 04:28:59;;;;;;;21.92;7.40;;;;;;;4.84;76.71;100265.75;5010202;28;20029;-70
2021/03/16 04:31:24;;;;;;;25.98;6.82;;;;;;;4.86;76.28;100259.59;5041778;28;20158;-70
2021/03/16 04:33:50;;;;;;;28.20;8.57;;;;;;;4.90;76.36;100261.28;5025665;28;20042;-70
2021/03/16 04:36:15;;;;;;;25.45;7.30;;;;;;;4.93;76.48;100262.97;5010213;28;20030;-70
2021/03/16 04:38:40;;;;;;;22.20;6.72;;;;;;;4.93;76.74;100262.97;5009397;28;20040;-70
2021/03/16 04:41:06;;;;;;;27.33;8.27;;;;;;;4.98;76.67;100266.34;5009860;28;20037;-69
2021/03/16 04:43:31;;;;;;;27.48;8.75;;;;;;;4.97;76.50;100264.63;5008444;28;20045;-70
2021/03/16 04:45:56;;;;;;;32.45;9.52;;;;;;;4.88;76.00;100268.28;5009442;28;20041;-70
2021/03/16 04:48:22;;;;;;;28.60;6.85;;;;;;;4.91;76.27;100269.97;5010554;28;20053;-70
2021/03/16 04:50:47;;;;;;;18.17;6.93;;;;;;;4.91;76.27;100273.44;5009338;28;20050;-70
2021/03/16 04:53:12;;;;;;;27.15;8.07;;;;;;;4.93;76.60;100273.41;5011839;28;20044;-70
2021/03/16 04:55:38;;;;;;;17.85;7.85;;;;;;;4.95;76.32;100274.25;5008274;28;20121;-70
2021/03/16 04:58:03;;;;;;;30.15;8.88;;;;;;;4.99;76.19;100277.66;5024641;28;20050;-70
2021/03/16 05:00:29;;;;;;;23.15;7.85;;;;;;;5.00;76.27;100274.19;5009019;28;20044;-69
2021/03/16 05:02:55;;;;;;;18.20;5.60;;;;;;;5.01;76.07;100287.19;5009411;28;20041;-70
2021/03/16 05:05:20;;;;;;;22.90;7.40;;;;;;;5.06;76.06;100282.75;5021437;28;20037;-69
2021/03/16 05:07:46;;;;;;;31.38;8.30;;;;;;;5.04;75.58;100281.06;5029502;28;20033;-69
2021/03/16 05:10:12;;;;;;;30.13;9.60;;;;;;;4.99;75.81;100286.34;5029176;28;20079;-70
2021/03/16 05:12:37;;;;;;;25.58;7.70;;;;;;;5.01;75.95;100291.56;5029594;28;20037;-70
2021/03/16 05:15:05;;;;;;;29.08;7.68;;;;;;;5.02;75.64;100288.94;5029351;28;20443;-70
2021/03/16 05:17:30;;;;;;;22.70;8.23;;;;;;;5.06;76.01;100297.56;5029620;28;20041;-69
2021/03/16 05:19:56;;;;;;;29.90;9.05;;;;;;;5.05;76.07;100285.41;5029210;28;20076;-69
2021/03/16 05:22:21;;;;;;;22.98;7.70;;;;;;;5.01;76.50;100294.19;5033128;28;20037;-69
2021/03/16 05:24:46;;;;;;;28.90;8.75;;;;;;;5.02;77.00;100294.16;5030905;28;20033;-68
2021/03/16 05:27:12;;;;;;;32.22;8.30;;;;;;;5.04;76.43;100294.13;5031212;28;20121;-69
2021/03/16 05:29:37;;;;;;;24.98;8.23;;;;;;;5.02;76.47;100301.13;5031030;28;20048;-69
2021/03/16 05:32:02;;;;;;;22.25;8.57;;;;;;;4.96;76.72;100304.72;5032920;28;20036;-68
2021/03/16 05:34:28;;;;;;;25.83;9.77;;;;;;;5.00;76.72;100303.78;5034055;28;20084;-69
2021/03/16 05:36:53;;;;;;;30.52;10.88;;;;;;;5.04;76.76;100304.56;5032937;28;20045;-71
2021/03/16 05:39:18;;;;;;;32.15;10.73;;;;;;;5.06;76.91;100302.78;5032217;28;20048;-69
2021/03/16 05:41:45;;;;;;;31.95;8.77;;;;;;;5.06;76.66;100308.88;5032595;28;20041;-69
2021/03/16 05:44:11;;;;;;;32.28;8.75;;;;;;;5.07;76.47;100309.72;4998194;28;20124;-69
2021/03/16 05:46:36;;;;;;;30.15;9.02;;;;;;;5.06;76.54;100313.25;5032179;28;20120;-70
2021/03/16 05:49:05;;;;;;;26.30;9.02;;;;;;;5.03;76.35;100318.53;5033244;28;20030;-68
2021/03/16 05:51:32;;;;;;;38.60;9.55;;;;;;;5.07;76.68;100317.56;5032199;28;20034;-70
2021/03/16 05:53:58;;;;;;;29.73;9.95;;;;;;;5.05;76.31;100316.75;5032318;28;20043;-70
2021/03/16 05:56:24;;;;;;;22.55;9.18;;;;;;;5.06;76.74;100313.25;5047683;28;20061;-70
2021/03/16 05:58:49;;;;;;;34.05;11.57;;;;;;;5.10;76.71;100317.53;5030314;28;20108;-70
2021/03/16 06:01:16;;;;;;;31.90;13.15;;;;;;;5.09;76.30;100321.03;5031903;28;20029;-69
2021/03/16 06:03:41;;;;;;;33.25;10.90;;;;;;;5.08;76.36;100316.69;5031894;28;20033;-70
2021/03/16 06:06:10;;;;;;;43.05;12.02;;;;;;;5.10;76.19;100322.75;5011809;28;20524;-70
2021/03/16 06:08:35;;;;;;;21.65;9.13;;;;;;;5.15;75.63;100320.94;5011199;28;20147;-69
2021/03/16 06:11:01;;;;;;;25.55;10.27;;;;;;;5.11;75.78;100322.72;5043650;28;20026;-70
2021/03/16 06:13:26;;;;;;;38.35;12.18;;;;;;;5.13;75.82;100327.94;5012790;28;20049;-69
2021/03/16 06:15:55;;;;;;;34.55;13.07;;;;;;;5.12;75.78;100334.06;5013281;28;20175;-68
2021/03/16 06:18:26;;;;;;;27.95;9.98;;;;;;;5.14;75.86;100335.75;5012499;28;20060;-68
2021/03/16 06:21:02;;;;;;;24.65;9.70;;;;;;;5.23;75.30;100333.84;5012266;28;20083;-69
2021/03/16 06:23:33;;;;;;;23.70;10.82;;;;;;;5.27;75.53;100338.13;5012310;28;20157;-70
2021/03/16 06:25:59;;;;;;;34.22;11.82;;;;;;;5.24;75.65;100339.06;5026930;28;20491;-71
2021/03/16 06:28:35;;;;;;;29.05;13.30;;;;;;;5.24;75.38;100336.44;5010878;28;20038;-71
2021/03/16 06:31:01;;;;;;;36.92;12.75;;;;;;;5.28;75.75;100345.94;5006856;28;20057;-72
2021/03/16 06:33:31;;;;;;;39.45;12.95;;;;;;;5.29;76.03;100333.72;5011237;28;20490;-70
2021/03/16 06:36:05;;;;;;;31.38;11.00;;;;;;;5.33;76.26;100338.00;5007773;28;20109;-70
2021/03/16 06:38:31;;;;;;;28.08;12.80;;;;;;;5.28;76.35;100348.56;5010937;28;20038;-71
2021/03/16 06:41:10;;;;;;;33.85;13.13;;;;;;;5.20;76.49;100334.78;5010285;28;20041;-71
2021/03/16 06:43:36;;;;;;;29.92;13.05;;;;;;;5.20;76.96;100337.38;5009097;28;20042;-71
2021/03/16 06:46:01;;;;;;;37.22;13.88;;;;;;;5.18;77.09;100341.78;5009859;28;20041;-69
2021/03/16 06:48:34;;;;;;;44.50;14.05;;;;;;;5.20;77.51;100345.22;5011738;28;20121;-67
2021/03/16 06:51:10;;;;;;;31.00;13.10;;;;;;;5.19;77.06;100345.25;5006218;28;20033;-70
2021/03/16 06:53:35;;;;;;;40.03;13.02;;;;;;;5.22;77.44;100348.69;5026416;28;20500;-70
2021/03/16 06:56:01;;;;;;;39.13;14.43;;;;;;;5.28;77.36;100347.69;5009901;28;20180;-69
2021/03/16 06:58:28;;;;;;;24.38;13.18;;;;;;;5.30;77.35;100349.38;5011543;28;20054;-68
2021/03/16 07:01:09;;;;;;;22.25;10.82;;;;;;;5.40;76.70;100359.69;5007644;28;20045;-69
2021/03/16 07:03:36;;;;;;;31.33;11.13;;;;;;;5.44;76.56;100345.63;5026168;28;20068;-68
2021/03/16 07:06:07;;;;;;;38.72;12.70;;;;;;;5.44;76.24;100351.75;5011276;28;20112;-69
2021/03/16 07:08:33;;;;;;;30.20;10.93;;;;;;;5.48;76.37;100355.16;5026531;28;20030;-69
2021/03/16 07:11:01;;;;;;;38.25;13.23;;;;;;;5.46;76.64;100351.72;5010124;28;20091;-69
2021/03/16 07:13:28;;;;;;;27.02;10.43;;;;;;;5.37;76.65;100353.63;5011610;28;20084;-69
2021/03/16 07:15:54;;;;;;;33.10;11.25;;;;;;;5.39;76.91;100350.97;5009601;28;20038;-69
2021/03/16 07:18:21;;;;;;;32.45;10.57;;;;;;;5.49;76.52;100354.25;5010826;28;20504;-69
2021/03/16 07:20:47;;;;;;;24.85;12.75;;;;;;;5.51;76.24;100345.53;5010040;28;20037;-69
2021/03/16 07:23:15;;;;;;;28.33;11.38;;;;;;;5.54;75.95;100352.44;5010846;28;20030;-69
2021/03/16 07:25:41;;;;;;;31.85;11.13;;;;;;;5.48;75.69;100357.78;5010890;28;20401;-68
2021/03/16 07:28:07;;;;;;;29.10;9.93;;;;;;;5.45;75.89;100361.31;5010671;28;20056;-69
2021/03/16 07:30:34;;;;;;;20.10;10.60;;;;;;;5.46;76.53;100362.16;5009971;28;20038;-69
2021/03/16 07:33:00;;;;;;;17.38;8.15;;;;;;;5.44;76.53;100359.59;5010347;28;20398;-69
2021/03/16 07:35:26;;;;;;;25.67;8.63;;;;;;;5.46;76.25;100363.03;5009652;28;20037;-69
2021/03/16 07:37:53;;;;;;;30.10;10.70;;;;;;;5.38;76.59;100363.16;5010554;28;20034;-69
2021/03/16 07:40:19;;;;;;;24.20;8.13;;;;;;;5.31;77.04;100368.53;5010142;28;20038;-69
2021/03/16 07:42:48;;;;;;;27.30;10.05;;;;;;;5.39;76.27;100369.28;5008178;28;20042;-70
2021/03/16 07:45:25;;;;;;;20.70;7.88;;;;;;;5.50;76.25;100371.69;5009685;28;20061;-70
2021/03/16 07:47:50;;;;;;;30.70;8.68;;;;;;;5.59;76.44;100375.00;5011557;28;20037;-70
2021/03/16 07:50:16;;;;;;;21.65;9.55;;;;;;;5.76;74.87;100368.56;5010190;28;20045;-70
2021/03/16 07:52:45;;;;;;;27.10;8.77;;;;;;;5.91;74.64;100368.25;5009522;28;20038;-70
2021/03/16 07:55:33;;;;;;;25.60;9.20;;;;;;;6.11;73.56;100370.47;5011464;28;20029;-71
2021/03/16 07:58:12;;;;;;;18.92;8.35;;;;;;;6.07;73.77;100379.28;5007797;28;20465;-69
2021/03/16 08:00:38;;;;;;;30.00;8.60;;;;;;;6.14;73.76;100378.25;4991042;28;20029;-71
2021/03/16 08:03:06;;;;;;;22.80;8.55;;;;;;;6.30;73.46;100391.00;5000789;28;20057;-69
2021/03/16 08:05:43;;;;;;;33.58;9.38;;;;;;;6.28;73.15;100387.59;5010245;28;20030;-69
2021/03/16 08:08:19;;;;;;;24.42;10.63;;;;;;;6.18;71.65;100387.78;5010025;28;20034;-69
2021/03/16 08:10:46;;;;;;;23.45;7.05;;;;;;;6.13;72.59;100396.59;5009952;28;20067;-69
2021/03/16 08:13:16;;;;;;;14.23;6.18;;;;;;;6.31;72.41;100390.13;5009863;28;20045;-69
2021/03/16 08:15:46;;;;;;;19.20;6.45;;;;;;;6.36;71.40;100380.41;5009625;28;20057;-68
2021/03/16 08:18:26;;;;;;;13.32;5.90;;;;;;;6.51;71.78;100403.63;5009845;28;20485;-68
2021/03/16 08:20:52;;;;;;;13.25;5.95;;;;;;;6.45;70.15;100396.78;4995405;28;20041;-69
2021/03/16 08:23:18;;;;;;;19.73;4.53;;;;;;;6.50;70.25;100399.31;5007472;28;20041;-71
2021/03/16 08:25:46;;;;;;;25.85;6.22;;;;;;;6.66;69.72;100400.66;5008527;28;20111;-70
2021/03/16 08:28:16;;;;;;;11.38;5.20;;;;;;;6.91;68.99;100409.69;5005323;28;20040;-70
2021/03/16 08:30:41;;;;;;;21.52;6.57;;;;;;;6.90;69.14;100400.97;5020873;28;20045;-69
2021/03/16 08:33:14;;;;;;;15.40;5.47;;;;;;;6.76;68.43;100393.44;5007043;28;20108;-69
2021/03/16 08:35:47;;;;;;;14.57;5.85;;;;;;;6.85;69.32;100401.09;5007399;28;20034;-69
2021/03/16 08:38:29;;;;;;;35.78;8.57;;;;;;;6.93;68.70;100387.78;5003995;28;20034;-70
2021/03/16 08:41:24;;;;;;;20.40;8.40;;;;;;;6.94;69.15;100379.06;5005117;28;20037;-69
2021/03/16 08:43:51;;;;;;;29.10;7.97;;;;;;;6.91;69.04;100391.34;4983124;28;20035;-69
2021/03/16 08:46:37;;;;;;;14.30;6.60;;;;;;;6.88;69.73;100395.78;5009154;28;20042;-69
2021/03/16 08:49:03;;;;;;;17.67;7.20;;;;;;;6.85;69.47;100400.22;4998452;28;20041;-69
2021/03/16 08:51:30;;;;;;;21.35;8.20;;;;;;;6.80;69.71;100396.88;5001612;28;20042;-69
2021/03/16 08:53:55;;;;;;;14.52;6.38;;;;;;;6.81;71.12;100395.97;4990484;28;20033;-69
2021/03/16 08:56:22;;;;;;;21.00;9.20;;;;;;;6.82;70.72;100411.66;5004650;28;20038;-69
2021/03/16 08:58:48;;;;;;;23.23;8.98;;;;;;;6.76;70.30;100401.31;5013158;28;20056;-69
2021/03/16 09:01:33;;;;;;;20.60;8.43;;;;;;;6.76;70.85;100405.69;5010158;28;20033;-69
2021/03/16 09:04:18;;;;;;;20.45;9.25;;;;;;;6.81;69.67;100404.69;5012366;28;20128;-69
2021/03/16 09:06:48;;;;;;;21.20;7.15;;;;;;;6.92;70.19;100401.81;5010652;28;20045;-69
2021/03/16 09:09:14;;;;;;;23.23;8.82;;;;;;;6.99;69.94;100407.75;5012294;28;20038;-68
2021/03/16 09:11:43;;;;;;;26.42;10.23;;;;;;;6.87;69.69;100408.94;5011823;28;20044;-68
2021/03/16 09:14:15;;;;;;;20.95;10.63;;;;;;;6.91;69.55;100400.06;5012310;28;20034;-69
2021/03/16 09:16:52;;;;;;;32.20;8.05;;;;;;;6.89;69.08;100407.09;5012242;28;20037;-70
2021/03/16 09:19:21;;;;;;;29.88;9.02;;;;;;;6.94;69.03;100404.38;5011205;28;20034;-67
2021/03/16 09:22:00;;;;;;;21.00;8.32;;;;;;;7.06;68.82;100407.59;5011634;28;20034;-68
2021/03/16 09:24:27;;;;;;;21.35;8.38;;;;;;;7.33;68.20;100402.50;5012889;28;20030;-68
2021/03/16 09:26:54;;;;;;;20.92;7.63;;;;;;;7.54;66.75;100401.09;5012957;28;20061;-68
2021/03/16 09:29:20;;;;;;;20.40;7.13;;;;;;;7.45;66.93;100410.06;5009545;28;20041;-68
2021/03/16 09:31:46;;;;;;;11.18;5.28;;;;;;;7.34;67.79;100401.63;5012536;28;20038;-70
2021/03/16 09:34:12;;;;;;;11.35;6.07;;;;;;;7.44;66.51;100400.47;5012694;28;20125;-69
2021/03/16 09:36:38;;;;;;;15.45;6.78;;;;;;;7.67;65.75;100409.50;5013049;28;20397;-68
2021/03/16 09:39:03;;;;;;;16.27;6.07;;;;;;;7.84;64.71;100409.03;5015589;28;20030;-68
2021/03/16 09:41:29;;;;;;;14.43;5.57;;;;;;;7.94;65.41;100413.97;5014990;28;20034;-71
2021/03/16 09:43:54;;;;;;;13.48;5.10;;;;;;;7.86;64.67;100405.47;5014706;28;20041;-68
2021/03/16 09:46:20;;;;;;;14.23;5.25;;;;;;;8.06;64.11;100410.13;5013346;28;20038;-68
2021/03/16 09:48:48;;;;;;;16.48;4.95;;;;;;;8.30;63.43;100408.56;5029114;28;20435;-67
2021/03/16 09:51:18;;;;;;;15.80;5.90;;;;;;;8.58;62.36;100410.38;5012965;28;20062;-69
2021/03/16 09:53:48;;;;;;;8.35;4.75;;;;;;;8.80;61.50;100407.94;5013362;28;20033;-69
2021/03/16 09:56:14;;;;;;;9.98;5.22;;;;;;;8.87;61.42;100400.72;5012335;28;20030;-69
2021/03/16 09:58:46;;;;;;;14.32;6.28;;;;;;;9.05;60.93;100404.50;5013036;28;20030;-68
2021/03/16 10:01:12;;;;;;;16.48;6.15;;;;;;;9.02;61.08;100400.22;5013889;28;20029;-70
2021/03/16 10:03:37;;;;;;;20.00;7.10;;;;;;;8.59;60.79;100398.97;5013052;28;20088;-69
2021/03/16 10:06:04;;;;;;;14.30;6.82;;;;;;;8.24;62.23;100392.97;5012878;28;20044;-69
2021/03/16 10:08:30;;;;;;;18.10;8.05;;;;;;;8.38;63.59;100388.16;5010199;28;20030;-69
2021/03/16 10:10:55;;;;;;;16.77;8.15;;;;;;;8.53;63.82;100396.53;5011980;28;20049;-68
2021/03/16 10:13:35;;;;;;;15.65;6.90;;;;;;;8.71;61.70;100388.09;5011213;28;20493;-69
2021/03/16 10:16:13;;;;;;;19.92;7.28;;;;;;;8.71;60.99;100380.19;5014957;28;20041;-68
2021/03/16 10:18:48;;;;;;;24.67;7.63;;;;;;;8.70;61.72;100381.09;4998711;28;20125;-68
2021/03/16 10:21:14;;;;;;;22.80;7.28;;;;;;;8.53;61.52;100394.75;4986809;28;20122;-67
2021/03/16 10:23:40;;;;;;;16.02;7.68;;;;;;;8.17;62.23;100378.31;5003487;28;20062;-69
2021/03/16 10:26:07;;;;;;;14.25;6.10;;;;;;;8.18;63.38;100380.91;5008736;28;20053;-68
2021/03/16 10:28:39;;;;;;;15.55;5.45;;;;;;;8.23;62.39;100387.78;5032008;28;20033;-68
2021/03/16 10:31:10;;;;;;;23.42;8.63;;;;;;;8.25;63.45;100380.72;5011275;28;20062;-69
2021/03/16 10:33:35;;;;;;;14.15;6.68;;;;;;;8.11;63.15;100383.75;5022931;28;20042;-69
2021/03/16 10:36:01;;;;;;;22.33;9.80;;;;;;;7.92;64.33;100386.91;4997074;28;20062;-70
2021/03/16 10:38:28;;;;;;;16.27;7.53;;;;;;;7.66;65.38;100392.03;4997070;28;20030;-71
2021/03/16 10:40:53;;;;;;;17.35;7.25;;;;;;;7.52;65.94;100384.53;4987285;28;20742;-71
2021/03/16 10:43:18;;;;;;;29.48;9.50;;;;;;;7.46;66.83;100380.31;4999298;28;20046;-71
2021/03/16 10:45:44;;;;;;;18.70;8.10;;;;;;;7.39;68.23;100380.53;5010403;28;20040;-71
2021/03/16 10:48:09;;;;;;;16.40;6.93;;;;;;;7.32;68.33;100380.69;5012340;28;20037;-70
2021/03/16 10:50:34;;;;;;;22.65;9.02;;;;;;;7.28;68.65;100375.53;5002388;28;20034;-71
2021/03/16 10:53:00;;;;;;;18.00;8.35;;;;;;;7.25;68.95;100373.00;5010991;28;20432;-71
2021/03/16 10:55:25;;;;;;;29.15;9.13;;;;;;;7.31;68.55;100376.34;5010211;28;20730;-71
2021/03/16 10:57:50;;;;;;;20.85;8.35;;;;;;;7.45;67.65;100375.97;5008245;28;20061;-71
2021/03/16 11:00:16;;;;;;;35.40;12.55;;;;;;;7.70;67.82;100375.28;5010399;28;20045;-71
2021/03/16 11:02:42;;;;;;;21.60;7.63;;;;;;;7.72;64.40;100363.00;5010870;28;20042;-71
2021/03/16 11:05:07;;;;;;;14.35;6.85;;;;;;;7.93;64.57;100367.63;5019858;28;20382;-70
2021/03/16 11:07:33;;;;;;;19.58;6.50;;;;;;;8.28;63.05;100354.34;5031739;28;20481;-71
2021/03/16 11:09:58;;;;;;;18.65;7.53;;;;;;;8.51;62.01;100361.53;5031008;28;20038;-71
2021/03/16 11:12:24;;;;;;;15.60;7.30;;;;;;;8.47;61.73;100362.56;5030788;28;20073;-71
2021/03/16 11:14:49;;;;;;;21.35;7.07;;;;;;;8.39;62.18;100365.38;5030922;28;20044;-70
2021/03/16 11:17:14;;;;;;;20.80;7.82;;;;;;;8.19;62.97;100371.25;5029267;28;20077;-71
2021/03/16 11:19:40;;;;;;;15.55;5.65;;;;;;;7.99;63.54;100371.84;5030184;28;20095;-70
2021/03/16 11:22:05;;;;;;;14.57;6.70;;;;;;;7.96;63.68;100375.41;5012490;28;20492;-70
2021/03/16 11:24:31;;;;;;;9.65;5.07;;;;;;;7.87;63.81;100375.66;5031255;28;20034;-70
2021/03/16 11:26:56;;;;;;;11.27;6.07;;;;;;;7.73;64.22;100364.72;5030630;28;20614;-71